Hovedside
METAR-TAF:

METAR-TAF

Lufthavner :

Ouarzazate, Marokko

breddegrad: 30-56N, lengdegrad: 006-54W, høyde over havet: 1139 m

Gjeldene værobservasjon

Denne rapporten ble laget for 19 minutter siden, klokken 10:00 UTC
Vind 1 kt fra skiftende retning
Temperatur 14°C
Luftfuktighet 24%
Trykk 1017 hPa
Sikt 10 km eller mer
ingen skyer under 1500 m og ingen bygeskyer

METAR: GMMZ 261000Z VRB01KT CAVOK 14/M06 Q1017 NOSIG

Tid: 11:19 (10:19 UTC)

Varsel

Denne rapporten ble laget for 5 timer og 19 minutter siden, klokken 05:00 UTC
Varsel gyldig fra 26. klokken 06 UTC til 27. klokken 12 UTC
Vind 3 kt fra Vest
Sikt 10 km eller mer
ingen skyer under 1500 m og ingen bygeskyer
Midlertidig
fra 26. klokken 14 UTC til 26. klokken 20 UTC
Vind 23 kt fra Nordvest med vindkast opp mot 34 kt
Blir
fra 26. klokken 20 UTC til 26. klokken 22 UTC
Vind 13 kt fra Vest-nordvest

TAF: GMMZ 260500Z 2606/2712 27003KT CAVOK TEMPO 2614/2620 32023G34KT BECMG 2620/2622 29013KT

Værobservasjoner og værvarsel for over 4000 flyplasser (METAR- og TAF-rapporter).

Tilgjengelige stasjoner er representert av de røde og gule prikkene på kartet.

Hold musepekeren over prikken for å se navnet på stasjonen.

Klikk så for å se værobservasjoner og -varsler.

For å forandre kartet kan du klikke på den grønne knappen med svart kryss for å zoome inn, på den grønne knappen med strek for å zoome ut, eller på de grønne pilene for å se tilstøtende kart.


METAR-TAF: